This is the latest recevied weather packets stored in our database for station/object XW7RMR. If no packets are shown the sender has not sent any weather packets the latest 10 day(s).
| Time | Temp. | Humidity | Pressure | Rain* | Wind** | Luminosity | Snow |
|---|---|---|---|---|---|---|---|
| 1777609601 | 18.89° C | 61% | 1013 hPa | 0 mm | - | 0 W/m² | - |
| 1777609298 | 18.33° C | 65% | 1013.1 hPa | 0 mm | - | 0 W/m² | - |
| 1777608996 | 18.89° C | 65% | 1012.9 hPa | 0 mm | - | 0 W/m² | - |
| 1777608692 | 18.89° C | 63% | 1012.9 hPa | 0 mm | - | 0 W/m² | - |
| 1777608389 | 18.89° C | 64% | 1012.9 hPa | 0 mm | - | 0 W/m² | - |
| 1777608088 | 18.89° C | 64% | 1012.7 hPa | 0 mm | - | 0 W/m² | - |
| 1777607783 | 19.44° C | 63% | 1012.7 hPa | 0 mm | - | 0 W/m² | - |
| 1777607480 | 19.44° C | 61% | 1012.6 hPa | 0 mm | - | 0 W/m² | - |
| 1777607177 | 20° C | 61% | 1012.7 hPa | 0 mm | - | 0 W/m² | - |
| 1777606872 | 20° C | 58% | 1012.7 hPa | 0 mm | - | 0 W/m² | - |
| 1777606568 | 20.56° C | 59% | 1012.5 hPa | 0 mm | - | 0 W/m² | - |
| 1777606263 | 20.56° C | 56% | 1012.3 hPa | 0 mm | - | 1 W/m² | - |
| 1777605959 | 21.11° C | 55% | 1012.3 hPa | 0 mm | - | 1 W/m² | - |
| 1777605655 | 21.67° C | 52% | 1012.2 hPa | 0 mm | - | 2 W/m² | - |
| 1777605354 | 22.78° C | 43% | 1012.5 hPa | 0 mm | - | 3 W/m² | - |
| 1777605051 | 23.33° C | 39% | 1012.5 hPa | 0 mm | - | 5 W/m² | - |
| 1777604746 | 23.33° C | 39% | 1012.5 hPa | 0 mm | - | 8 W/m² | - |
| 1777604444 | 23.89° C | 39% | 1012.2 hPa | 0 mm | - | 12 W/m² | - |
| 1777604143 | 23.89° C | 38% | 1012.2 hPa | 0 mm | - | 16 W/m² | - |
| 1777603841 | 23.89° C | 38% | 1012.1 hPa | 0 mm | - | 21 W/m² | - |
| 1777603537 | 24.44° C | 38% | 1012.1 hPa | 0 mm | - | 26 W/m² | - |
| 1777603232 | 25° C | 36% | 1012.1 hPa | 0 mm | - | 30 W/m² | - |
| 1777602928 | 25° C | 37% | 1012.1 hPa | 0 mm | - | 33 W/m² | - |
| 1777602624 | 25° C | 37% | 1012.1 hPa | 0 mm | - | 36 W/m² | - |
| 1777602319 | 25° C | 35% | 1012.2 hPa | 0 mm | - | 38 W/m² | - |
* Rain latest hour (hover to see other rain measurements)
** Current wind speed in m/s (hover to see current wind gust speed)